createdAt,value
2023-10-06T00:02:29.960Z,16.52
2023-10-06T00:04:59.005Z,8.65
2023-10-06T00:07:27.701Z,20.48
2023-10-06T00:09:56.408Z,41.33
2023-10-06T00:12:27.452Z,31.98
2023-10-06T00:14:59.076Z,11.05
2023-10-06T00:17:34.694Z,11.30
2023-10-06T00:20:06.988Z,13.32
2023-10-06T00:22:38.809Z,9.68
2023-10-06T00:25:14.988Z,12.15
2023-10-06T00:27:42.892Z,14.40
2023-10-06T00:30:13.025Z,17.75
2023-10-06T00:32:43.553Z,9.63
2023-10-06T00:35:12.948Z,11.32
2023-10-06T00:37:44.577Z,10.23
2023-10-06T00:40:20.495Z,16.05
2023-10-06T00:42:52.687Z,11.48
2023-10-06T00:45:23.123Z,12.93
2023-10-06T00:47:54.503Z,11.00
2023-10-06T00:50:24.170Z,12.25
2023-10-06T00:52:52.877Z,13.30
2023-10-06T00:55:22.187Z,11.80
2023-10-06T00:57:53.918Z,11.75
2023-10-06T01:00:22.804Z,16.77
2023-10-06T01:02:52.844Z,16.13
2023-10-06T01:05:21.618Z,15.55
2023-10-06T01:07:50.824Z,13.20
2023-10-06T01:10:19.786Z,15.55
2023-10-06T01:12:52.834Z,13.60
2023-10-06T01:15:21.796Z,12.15
2023-10-06T01:17:50.259Z,14.20
2023-10-06T01:20:30.034Z,17.73
2023-10-06T01:22:59.271Z,15.35
2023-10-06T01:25:27.805Z,14.80
2023-10-06T01:27:55.695Z,15.07
2023-10-06T01:30:23.733Z,13.15
2023-10-06T01:32:52.811Z,16.98
2023-10-06T01:35:24.521Z,13.52
2023-10-06T01:37:53.267Z,13.38
2023-10-06T01:40:42.798Z,17.33
2023-10-06T01:43:13.496Z,14.00
2023-10-06T01:45:45.170Z,15.38
2023-10-06T01:48:25.195Z,14.68
2023-10-06T01:50:55.673Z,11.30
2023-10-06T01:53:23.788Z,14.95
2023-10-06T01:55:56.210Z,11.55
2023-10-06T01:58:23.999Z,15.13
2023-10-06T02:00:52.082Z,11.90
2023-10-06T02:03:22.841Z,13.77
2023-10-06T02:05:55.977Z,12.38
2023-10-06T02:08:24.912Z,13.38
2023-10-06T02:10:52.951Z,11.65
2023-10-06T02:13:22.892Z,14.93
2023-10-06T02:15:57.869Z,12.88
2023-10-06T02:18:26.465Z,11.90
2023-10-06T02:20:54.282Z,18.73
2023-10-06T02:23:22.609Z,15.05
2023-10-06T02:25:50.414Z,15.02
2023-10-06T02:28:22.015Z,20.20
2023-10-06T02:30:53.050Z,17.58
2023-10-06T02:33:25.304Z,18.30
2023-10-06T02:35:56.591Z,17.05
2023-10-06T02:38:29.771Z,19.67
2023-10-06T02:40:57.727Z,15.18
2023-10-06T02:43:28.809Z,14.93
2023-10-06T02:46:05.796Z,12.68
2023-10-06T02:48:34.856Z,10.57
2023-10-06T02:51:05.287Z,14.00
2023-10-06T02:53:36.358Z,12.18
2023-10-06T02:56:11.084Z,15.63
2023-10-06T02:58:43.226Z,10.88
2023-10-06T03:01:15.440Z,13.85
2023-10-06T03:03:43.510Z,13.45
2023-10-06T03:06:12.561Z,12.13
2023-10-06T03:08:43.237Z,11.43
2023-10-06T03:11:23.571Z,12.15
2023-10-06T03:13:55.790Z,15.52
2023-10-06T03:16:26.752Z,13.65
2023-10-06T03:18:55.622Z,19.30
2023-10-06T03:21:24.638Z,16.35
2023-10-06T03:23:59.482Z,15.95
2023-10-06T03:26:31.263Z,15.93
2023-10-06T03:29:04.673Z,16.92
2023-10-06T03:31:45.902Z,19.80
2023-10-06T03:34:18.657Z,14.00
2023-10-06T03:36:52.818Z,15.18
2023-10-06T03:39:28.924Z,18.85
2023-10-06T03:42:01.045Z,14.55
2023-10-06T03:44:31.628Z,16.00
2023-10-06T03:47:02.197Z,16.75
2023-10-06T03:49:34.475Z,20.02
2023-10-06T03:52:02.547Z,16.05
2023-10-06T03:54:30.979Z,14.35
2023-10-06T03:56:59.325Z,13.88
2023-10-06T03:59:28.612Z,18.33
2023-10-06T04:01:57.185Z,11.48
2023-10-06T04:04:27.694Z,12.05
2023-10-06T04:06:57.932Z,19.73
2023-10-06T04:09:29.898Z,13.45
2023-10-06T04:11:59.106Z,13.88
2023-10-06T04:14:29.092Z,15.30
2023-10-06T04:16:58.022Z,15.75
2023-10-06T04:19:27.192Z,14.10
2023-10-06T04:21:55.004Z,17.67
2023-10-06T04:24:22.769Z,17.70
2023-10-06T04:26:50.528Z,18.05
2023-10-06T04:29:19.909Z,15.65
2023-10-06T04:31:49.057Z,14.63
2023-10-06T04:34:16.946Z,16.55
2023-10-06T04:36:46.055Z,11.32
2023-10-06T04:39:17.741Z,14.77
2023-10-06T04:41:45.616Z,19.30
2023-10-06T04:44:13.747Z,17.98
2023-10-06T04:46:41.748Z,13.02
2023-10-06T04:49:09.933Z,15.48
2023-10-06T04:51:37.936Z,13.70
2023-10-06T04:54:09.438Z,14.48
2023-10-06T04:56:37.544Z,14.73
2023-10-06T04:59:07.846Z,15.20
2023-10-06T05:01:36.322Z,11.07
2023-10-06T05:04:07.457Z,14.88
2023-10-06T05:06:35.474Z,14.40
2023-10-06T05:09:04.032Z,12.98
2023-10-06T05:11:33.922Z,21.05
2023-10-06T05:14:02.578Z,13.98
2023-10-06T05:16:30.605Z,13.88
2023-10-06T05:18:58.459Z,14.45
2023-10-06T05:21:27.017Z,15.32
2023-10-06T05:23:57.055Z,13.52
2023-10-06T05:26:25.402Z,15.30
2023-10-06T05:28:54.642Z,15.43
2023-10-06T05:31:23.503Z,15.07
2023-10-06T05:33:52.545Z,19.40
2023-10-06T05:36:21.583Z,14.15
2023-10-06T05:38:50.464Z,12.70
2023-10-06T05:41:20.345Z,13.52
2023-10-06T05:43:50.085Z,15.13
2023-10-06T05:46:20.376Z,17.23
2023-10-06T05:48:48.198Z,17.65
2023-10-06T05:51:22.364Z,16.73
2023-10-06T05:53:50.495Z,15.25
2023-10-06T05:56:20.968Z,18.92
2023-10-06T05:58:48.924Z,17.63
2023-10-06T06:01:19.999Z,18.00
2023-10-06T06:03:51.220Z,27.63
2023-10-06T06:06:24.133Z,20.45
2023-10-06T06:08:53.132Z,30.08
2023-10-06T06:11:21.695Z,23.08
2023-10-06T06:14:02.332Z,19.67
2023-10-06T06:16:35.467Z,24.77
2023-10-06T06:19:06.953Z,25.13
2023-10-06T06:21:35.799Z,19.90
2023-10-06T06:24:03.720Z,21.08
2023-10-06T06:26:32.983Z,15.38
2023-10-06T06:29:04.119Z,17.15
2023-10-06T06:31:34.157Z,13.57
2023-10-06T06:34:02.012Z,15.85
2023-10-06T06:36:32.773Z,18.40
2023-10-06T06:39:01.261Z,12.10
2023-10-06T06:41:29.527Z,13.98
2023-10-06T06:43:59.850Z,12.10
2023-10-06T06:46:31.427Z,12.38
2023-10-06T06:49:01.198Z,14.18
2023-10-06T06:51:32.211Z,9.48
2023-10-06T06:54:00.732Z,12.45
2023-10-06T06:56:30.828Z,12.80
2023-10-06T06:59:01.164Z,14.65
2023-10-06T07:01:29.872Z,14.73
2023-10-06T07:04:02.122Z,11.63
2023-10-06T07:06:33.115Z,13.90
2023-10-06T07:09:01.603Z,12.27
2023-10-06T07:11:29.969Z,13.98
2023-10-06T07:13:58.994Z,14.95
2023-10-06T07:16:27.049Z,13.68
2023-10-06T07:18:55.131Z,12.93
2023-10-06T07:21:23.987Z,13.55
2023-10-06T07:23:57.706Z,13.40
2023-10-06T07:26:25.975Z,12.30
2023-10-06T07:28:54.340Z,10.75
2023-10-06T07:31:22.358Z,12.55
2023-10-06T07:33:52.884Z,15.73
2023-10-06T07:36:20.732Z,11.77
2023-10-06T07:38:49.398Z,10.15
2023-10-06T07:41:22.126Z,14.40
2023-10-06T07:43:50.252Z,12.27
2023-10-06T07:46:21.092Z,13.40
2023-10-06T07:48:51.763Z,12.63
2023-10-06T07:51:20.782Z,12.48
2023-10-06T07:53:49.806Z,9.40
2023-10-06T07:56:19.898Z,12.13
2023-10-06T07:58:51.029Z,13.85
2023-10-06T08:01:21.661Z,15.20
2023-10-06T08:03:49.548Z,11.00
2023-10-06T08:06:17.490Z,18.65
2023-10-06T08:08:45.827Z,11.35
2023-10-06T08:11:14.593Z,12.13
2023-10-06T08:13:45.068Z,11.65
2023-10-06T08:16:14.453Z,16.88
2023-10-06T08:18:42.462Z,12.68
2023-10-06T08:21:12.064Z,11.85
2023-10-06T08:23:40.165Z,10.90
2023-10-06T08:26:10.302Z,11.20
2023-10-06T08:28:38.500Z,14.65
2023-10-06T08:31:06.500Z,14.18
2023-10-06T08:33:37.321Z,12.30
2023-10-06T08:36:09.617Z,11.13
2023-10-06T08:38:37.669Z,11.45
2023-10-06T08:41:09.024Z,11.13
2023-10-06T08:43:40.440Z,10.43
2023-10-06T08:46:09.416Z,13.93
2023-10-06T08:48:42.062Z,11.35
2023-10-06T08:51:15.912Z,14.15
2023-10-06T08:53:47.075Z,13.50
2023-10-06T08:56:16.680Z,15.20
2023-10-06T08:58:45.520Z,12.50
2023-10-06T09:01:14.910Z,10.85
2023-10-06T09:03:44.268Z,13.95
2023-10-06T09:06:12.967Z,12.00
2023-10-06T09:08:43.590Z,11.18
2023-10-06T09:11:13.466Z,13.05
2023-10-06T09:13:43.322Z,11.20
2023-10-06T09:16:14.326Z,11.55
2023-10-06T09:18:42.808Z,10.45
2023-10-06T09:21:17.726Z,13.48
2023-10-06T09:23:46.412Z,14.40
2023-10-06T09:26:17.741Z,12.18
2023-10-06T09:28:53.616Z,15.60
2023-10-06T09:31:36.495Z,11.68
2023-10-06T09:34:09.206Z,12.60
2023-10-06T09:36:45.455Z,12.38
2023-10-06T09:39:18.964Z,10.02
2023-10-06T09:41:49.226Z,8.35
2023-10-06T09:44:20.966Z,9.75
2023-10-06T09:46:54.662Z,10.30
2023-10-06T09:49:23.979Z,13.35
2023-10-06T09:51:54.759Z,11.32
2023-10-06T09:54:23.442Z,10.43
2023-10-06T09:56:56.399Z,11.55
2023-10-06T09:59:27.538Z,12.88
2023-10-06T10:01:59.872Z,9.52
2023-10-06T10:04:31.789Z,12.07
2023-10-06T10:07:03.730Z,9.70
2023-10-06T10:09:36.259Z,11.30
2023-10-06T10:12:20.451Z,15.95
2023-10-06T10:15:05.966Z,10.55
2023-10-06T10:17:40.263Z,14.60
2023-10-06T10:20:10.919Z,12.25
2023-10-06T10:23:04.345Z,11.50
2023-10-06T10:25:32.653Z,11.73
2023-10-06T10:28:18.572Z,11.30
2023-10-06T10:30:54.935Z,13.00
2023-10-06T10:33:46.343Z,10.38
2023-10-06T10:36:24.245Z,10.45
2023-10-06T10:39:14.089Z,8.57
2023-10-06T10:41:42.961Z,10.98
2023-10-06T10:44:25.322Z,11.20
2023-10-06T10:46:57.372Z,16.85
2023-10-06T10:49:25.941Z,8.68
2023-10-06T10:51:58.513Z,10.05
2023-10-06T10:54:29.824Z,11.30
2023-10-06T10:57:03.652Z,12.55
2023-10-06T11:00:13.519Z,11.98
2023-10-06T11:02:43.096Z,10.07
2023-10-06T11:05:12.844Z,9.48
2023-10-06T11:07:42.809Z,10.13
2023-10-06T11:10:14.468Z,10.07
2023-10-06T11:12:42.380Z,10.30
2023-10-06T11:15:15.914Z,13.95
2023-10-06T11:17:46.324Z,9.82
2023-10-06T11:20:17.210Z,12.43
2023-10-06T11:22:56.570Z,9.50
2023-10-06T11:25:29.367Z,11.68
2023-10-06T11:27:58.663Z,10.63
2023-10-06T11:30:30.142Z,10.05
2023-10-06T11:32:59.167Z,8.55
2023-10-06T11:35:27.585Z,11.20
2023-10-06T11:37:56.422Z,12.43
2023-10-06T11:40:26.559Z,8.95
2023-10-06T11:42:54.974Z,9.32
2023-10-06T11:45:28.858Z,10.10
2023-10-06T11:47:57.361Z,9.07
2023-10-06T11:50:26.767Z,9.48
2023-10-06T11:52:56.470Z,9.52
2023-10-06T11:55:27.885Z,12.23
2023-10-06T11:57:55.824Z,5.53
2023-10-06T12:00:41.206Z,7.82
2023-10-06T12:03:11.642Z,8.45
2023-10-06T12:05:42.794Z,6.32
2023-10-06T12:08:17.294Z,7.32
2023-10-06T12:10:51.704Z,7.22
2023-10-06T12:13:21.551Z,7.25
2023-10-06T12:15:49.478Z,7.82
2023-10-06T12:18:18.210Z,10.45
2023-10-06T12:20:46.186Z,6.50
2023-10-06T12:23:14.080Z,8.75
2023-10-06T12:25:42.125Z,9.18
2023-10-06T12:28:15.223Z,6.00
2023-10-06T12:30:46.409Z,10.93
2023-10-06T12:33:17.639Z,8.40
2023-10-06T12:35:48.464Z,7.63
2023-10-06T12:38:16.559Z,8.63
2023-10-06T12:40:48.244Z,9.95
2023-10-06T12:43:20.289Z,9.10
2023-10-06T12:45:48.566Z,7.32
2023-10-06T12:48:16.906Z,8.00
2023-10-06T12:50:45.071Z,5.63
2023-10-06T12:53:13.543Z,6.75
2023-10-06T12:55:43.085Z,5.80
2023-10-06T12:58:15.981Z,10.68
2023-10-06T13:00:45.556Z,7.32
2023-10-06T13:03:17.983Z,5.55
2023-10-06T13:05:47.881Z,5.72
2023-10-06T13:08:22.569Z,8.38
2023-10-06T13:10:50.984Z,7.13
2023-10-06T13:13:18.897Z,7.80
2023-10-06T13:15:50.221Z,6.30
2023-10-06T13:18:19.562Z,9.25
2023-10-06T13:20:47.647Z,8.32
2023-10-06T13:23:15.915Z,7.53
2023-10-06T13:25:47.263Z,1.67
2023-10-06T13:28:18.051Z,6.70
2023-10-06T13:30:48.133Z,8.52
2023-10-06T13:33:16.619Z,7.30
2023-10-06T13:35:45.649Z,7.05
2023-10-06T13:38:14.530Z,8.75
2023-10-06T13:40:45.705Z,8.13
2023-10-06T13:43:13.911Z,5.93
2023-10-06T13:45:46.144Z,7.18
2023-10-06T13:48:17.440Z,7.60
2023-10-06T13:50:47.205Z,5.53
2023-10-06T13:53:16.385Z,9.20
2023-10-06T13:55:45.831Z,5.85
2023-10-06T13:58:14.500Z,6.40
2023-10-06T14:00:44.438Z,9.07
2023-10-06T14:03:15.078Z,6.35
2023-10-06T14:05:52.210Z,4.72
2023-10-06T14:08:20.291Z,5.38
2023-10-06T14:10:48.346Z,7.22
2023-10-06T14:13:24.654Z,7.18
2023-10-06T14:18:27.508Z,10.73
2023-10-06T14:23:48.235Z,7.35
2023-10-06T14:26:16.219Z,8.23
2023-10-06T14:28:45.554Z,9.15
2023-10-06T14:31:25.313Z,6.45
2023-10-06T14:34:19.829Z,9.98
2023-10-06T14:36:49.081Z,5.93
2023-10-06T14:39:46.018Z,7.00
2023-10-06T14:42:30.797Z,5.78
2023-10-06T14:45:16.354Z,8.52
2023-10-06T14:47:44.500Z,6.22
2023-10-06T14:50:14.814Z,9.27
2023-10-06T14:52:44.396Z,8.80
2023-10-06T14:55:12.212Z,9.77
2023-10-06T14:57:40.051Z,7.22
2023-10-06T15:00:10.493Z,7.03
2023-10-06T15:02:38.627Z,8.73
2023-10-06T15:05:07.106Z,7.70
2023-10-06T15:07:38.015Z,9.18
2023-10-06T15:10:08.005Z,7.22
2023-10-06T15:12:36.387Z,5.47
2023-10-06T15:15:05.014Z,10.50
2023-10-06T15:17:33.011Z,7.32
2023-10-06T15:20:01.105Z,8.43
2023-10-06T15:22:31.252Z,7.22
2023-10-06T15:24:59.374Z,8.98
2023-10-06T15:27:28.531Z,5.70
2023-10-06T15:29:56.437Z,11.40
2023-10-06T15:32:26.084Z,7.78
2023-10-06T15:34:53.932Z,8.35
2023-10-06T15:37:22.452Z,6.35
2023-10-06T15:39:51.290Z,10.35
2023-10-06T15:42:19.545Z,5.15
2023-10-06T15:44:48.852Z,9.30
2023-10-06T15:47:17.515Z,7.43
2023-10-06T15:49:46.494Z,8.93
2023-10-06T15:52:14.736Z,8.82
2023-10-06T15:54:42.536Z,11.02
2023-10-06T15:57:10.615Z,8.57
2023-10-06T15:59:39.419Z,9.60
2023-10-06T16:02:11.047Z,12.85
2023-10-06T16:04:40.272Z,10.60
2023-10-06T16:07:09.650Z,8.38
2023-10-06T16:09:38.545Z,10.73
2023-10-06T16:12:07.916Z,7.53
2023-10-06T16:14:35.861Z,12.70
2023-10-06T16:17:03.785Z,7.35
2023-10-06T16:19:32.972Z,9.13
2023-10-06T16:22:01.959Z,7.20
2023-10-06T16:24:29.764Z,12.25
2023-10-06T16:26:58.835Z,10.15
2023-10-06T16:29:26.879Z,14.60
2023-10-06T16:31:54.912Z,15.63
2023-10-06T16:34:22.779Z,15.73
2023-10-06T16:36:53.676Z,12.32
2023-10-06T16:39:23.119Z,12.80
2023-10-06T16:41:51.651Z,19.40
2023-10-06T16:44:21.569Z,20.98
2023-10-06T16:46:50.402Z,13.82
2023-10-06T16:49:18.357Z,14.00
2023-10-06T16:51:47.579Z,12.32
2023-10-06T16:54:16.974Z,10.75
2023-10-06T16:56:45.137Z,8.23
2023-10-06T16:59:14.329Z,8.30
2023-10-06T17:01:44.155Z,8.82
2023-10-06T17:04:16.032Z,12.18
2023-10-06T17:06:44.493Z,13.10
2023-10-06T17:09:15.206Z,9.40
2023-10-06T17:11:45.246Z,12.77
2023-10-06T17:14:13.873Z,12.35
2023-10-06T17:16:42.688Z,14.15
2023-10-06T17:19:13.209Z,10.52
2023-10-06T17:21:43.377Z,10.70
2023-10-06T17:24:12.366Z,9.90
2023-10-06T17:26:40.847Z,7.13
2023-10-06T17:29:11.936Z,10.43
2023-10-06T17:31:45.298Z,10.25
2023-10-06T17:34:13.464Z,11.30
2023-10-06T17:36:41.391Z,10.10
2023-10-06T17:39:09.290Z,13.65
2023-10-06T17:41:39.224Z,9.43
2023-10-06T17:44:08.685Z,8.88
2023-10-06T17:46:39.186Z,11.73
2023-10-06T17:49:09.272Z,10.45
2023-10-06T17:51:39.202Z,12.30
2023-10-06T17:54:07.285Z,12.15
2023-10-06T17:56:35.911Z,11.95
2023-10-06T17:59:03.681Z,11.35
2023-10-06T18:01:32.668Z,9.32
2023-10-06T18:04:02.060Z,10.00
2023-10-06T18:06:32.550Z,13.35
2023-10-06T18:09:00.363Z,12.88
2023-10-06T18:11:28.880Z,9.93
2023-10-06T18:13:58.145Z,12.20
2023-10-06T18:16:28.872Z,9.52
2023-10-06T18:18:59.171Z,11.48
2023-10-06T18:21:31.449Z,9.73
2023-10-06T18:24:00.582Z,10.60
2023-10-06T18:26:28.837Z,10.75
2023-10-06T18:28:56.953Z,11.88
2023-10-06T18:31:26.299Z,9.60
2023-10-06T18:33:54.343Z,11.05
2023-10-06T18:36:22.148Z,11.70
2023-10-06T18:38:57.061Z,14.73
2023-10-06T18:41:25.277Z,9.07
2023-10-06T18:43:58.674Z,14.50
2023-10-06T18:46:26.623Z,12.40
2023-10-06T18:48:54.588Z,13.07
2023-10-06T18:51:22.402Z,13.35
2023-10-06T18:53:51.811Z,9.15
2023-10-06T18:56:20.059Z,12.88
2023-10-06T18:58:50.145Z,7.88
2023-10-06T19:01:21.083Z,9.70
2023-10-06T19:03:51.983Z,15.85
2023-10-06T19:06:19.929Z,9.40
2023-10-06T19:08:51.434Z,9.88
2023-10-06T19:11:21.526Z,9.25
2023-10-06T19:13:50.542Z,11.35
2023-10-06T19:16:26.665Z,11.55
2023-10-06T19:18:54.706Z,15.52
2023-10-06T19:21:24.953Z,16.10
2023-10-06T19:23:52.811Z,18.98
2023-10-06T19:26:23.513Z,22.67
2023-10-06T19:28:53.866Z,15.60
2023-10-06T19:31:21.869Z,20.33
2023-10-06T19:33:53.493Z,16.20
2023-10-06T19:36:21.935Z,12.50
2023-10-06T19:38:51.577Z,15.85
2023-10-06T19:41:19.873Z,13.10
2023-10-06T19:43:49.133Z,12.82
2023-10-06T19:46:17.170Z,12.93
2023-10-06T19:48:47.350Z,18.10
2023-10-06T19:51:16.242Z,13.80
2023-10-06T19:53:44.169Z,14.80
2023-10-06T19:56:13.322Z,18.58
2023-10-06T19:58:41.669Z,13.82
2023-10-06T20:01:11.277Z,17.77
2023-10-06T20:03:40.833Z,10.40
2023-10-06T20:06:08.942Z,17.25
2023-10-06T20:08:37.262Z,16.55
2023-10-06T20:11:05.259Z,10.32
2023-10-06T20:13:34.471Z,12.73
2023-10-06T20:16:14.169Z,16.02
2023-10-06T20:18:43.679Z,10.48
2023-10-06T20:21:13.003Z,10.77
2023-10-06T20:23:41.263Z,10.48
2023-10-06T20:26:09.130Z,11.13
2023-10-06T20:28:37.009Z,9.65
2023-10-06T20:31:05.598Z,12.48
2023-10-06T20:33:35.309Z,13.05
2023-10-06T20:36:03.244Z,13.35
2023-10-06T20:38:32.372Z,12.35
2023-10-06T20:41:00.330Z,14.13
2023-10-06T20:43:28.332Z,9.32
2023-10-06T20:45:58.038Z,14.02
2023-10-06T20:48:26.149Z,9.60
2023-10-06T20:50:55.364Z,7.70
2023-10-06T20:53:24.319Z,12.02
2023-10-06T20:55:59.287Z,12.05
2023-10-06T20:58:27.161Z,11.60
2023-10-06T21:00:56.043Z,12.77
2023-10-06T21:03:26.600Z,14.95
2023-10-06T21:05:57.879Z,15.63
2023-10-06T21:08:25.879Z,14.52
2023-10-06T21:10:53.742Z,14.15
2023-10-06T21:13:22.708Z,9.40
2023-10-06T21:15:50.674Z,8.77
2023-10-06T21:18:18.564Z,13.52
2023-10-06T21:20:46.494Z,13.65
2023-10-06T21:23:15.749Z,12.20
2023-10-06T21:25:45.441Z,14.40
2023-10-06T21:28:13.360Z,14.52
2023-10-06T21:30:42.985Z,13.65
2023-10-06T21:33:11.947Z,16.88
2023-10-06T21:35:40.649Z,14.68
2023-10-06T21:38:08.521Z,16.23
2023-10-06T21:40:37.811Z,13.82
2023-10-06T21:43:05.852Z,15.63
2023-10-06T21:45:33.717Z,15.07
2023-10-06T21:48:01.485Z,15.73
2023-10-06T21:50:29.529Z,12.70
2023-10-06T21:52:57.378Z,17.23
2023-10-06T21:55:26.396Z,12.35
2023-10-06T21:57:56.564Z,14.10
2023-10-06T22:00:27.781Z,13.45
2023-10-06T22:02:56.326Z,14.48
2023-10-06T22:05:24.525Z,9.43
2023-10-06T22:07:52.552Z,12.75
2023-10-06T22:10:20.660Z,13.23
2023-10-06T22:12:49.841Z,16.23
2023-10-06T22:15:19.040Z,13.55
2023-10-06T22:17:47.084Z,21.65
2023-10-06T22:20:15.643Z,15.75
2023-10-06T22:22:43.553Z,16.77
2023-10-06T22:25:11.639Z,13.27
2023-10-06T22:27:41.816Z,15.45
2023-10-06T22:30:12.474Z,14.77
2023-10-06T22:32:42.552Z,16.27
2023-10-06T22:35:11.889Z,15.95
2023-10-06T22:37:39.864Z,11.05
2023-10-06T22:40:17.454Z,14.27
2023-10-06T22:42:48.639Z,13.57
2023-10-06T22:45:16.930Z,16.10
2023-10-06T22:47:49.302Z,11.90
2023-10-06T22:50:17.951Z,14.88
2023-10-06T22:52:46.768Z,14.27
2023-10-06T22:55:16.203Z,14.45
2023-10-06T22:57:44.011Z,13.85
2023-10-06T23:00:17.984Z,17.23
2023-10-06T23:02:48.253Z,10.98
2023-10-06T23:05:16.854Z,14.90
2023-10-06T23:07:45.944Z,14.65
2023-10-06T23:10:14.404Z,15.77
2023-10-06T23:12:42.348Z,16.25
2023-10-06T23:15:11.045Z,16.00
2023-10-06T23:17:41.705Z,14.55
2023-10-06T23:20:23.984Z,15.90
2023-10-06T23:22:54.430Z,15.38
2023-10-06T23:25:25.323Z,18.20
2023-10-06T23:27:54.068Z,17.20
2023-10-06T23:30:22.408Z,10.40
2023-10-06T23:32:51.307Z,16.55
2023-10-06T23:35:20.539Z,13.15
2023-10-06T23:37:55.650Z,13.80
2023-10-06T23:40:28.612Z,17.38
2023-10-06T23:42:56.691Z,22.05
2023-10-06T23:45:30.038Z,14.13
2023-10-06T23:47:58.847Z,12.57
2023-10-06T23:50:29.784Z,14.63
2023-10-06T23:53:01.210Z,11.27
2023-10-06T23:55:32.887Z,15.60
2023-10-06T23:58:01.451Z,18.08
